sensor_id;sensor_type;location;lat;lon;timestamp;pressure;altitude;pressure_sealevel;temperature;humidity
61086;BME280;46967;48.876;2.136;2023-01-24T00:00:28;103227.53;;;2.51;77.13
61086;BME280;46967;48.876;2.136;2023-01-24T00:02:54;103234.25;;;2.49;77.21
61086;BME280;46967;48.876;2.136;2023-01-24T00:05:19;103232.41;;;2.45;77.07
61086;BME280;46967;48.876;2.136;2023-01-24T00:07:45;103229.69;;;2.42;77.21
61086;BME280;46967;48.876;2.136;2023-01-24T00:10:11;103233.84;;;2.38;77.75
61086;BME280;46967;48.876;2.136;2023-01-24T00:12:36;103233.06;;;2.41;77.63
61086;BME280;46967;48.876;2.136;2023-01-24T00:15:02;103232.53;;;2.48;77.76
61086;BME280;46967;48.876;2.136;2023-01-24T00:17:27;103229.06;;;2.47;77.93
61086;BME280;46967;48.876;2.136;2023-01-24T00:19:53;103230.97;;;2.51;77.69
61086;BME280;46967;48.876;2.136;2023-01-24T00:22:18;103235.56;;;2.59;77.29
61086;BME280;46967;48.876;2.136;2023-01-24T00:24:43;103225.03;;;2.52;77.29
61086;BME280;46967;48.876;2.136;2023-01-24T00:27:09;103226.56;;;2.49;77.61
61086;BME280;46967;48.876;2.136;2023-01-24T00:29:34;103220.78;;;2.53;77.31
61086;BME280;46967;48.876;2.136;2023-01-24T00:31:59;103222.34;;;2.49;77.45
61086;BME280;46967;48.876;2.136;2023-01-24T00:34:25;103216.25;;;2.47;77.49
61086;BME280;46967;48.876;2.136;2023-01-24T00:36:50;103218.94;;;2.50;77.39
61086;BME280;46967;48.876;2.136;2023-01-24T00:39:15;103214.53;;;2.46;77.71
61086;BME280;46967;48.876;2.136;2023-01-24T00:41:41;103219.00;;;2.52;77.24
61086;BME280;46967;48.876;2.136;2023-01-24T00:44:06;103217.22;;;2.49;77.62
61086;BME280;46967;48.876;2.136;2023-01-24T00:46:32;103218.59;;;2.41;77.97
61086;BME280;46967;48.876;2.136;2023-01-24T00:48:57;103221.88;;;2.39;77.77
61086;BME280;46967;48.876;2.136;2023-01-24T00:51:23;103227.53;;;2.31;78.43
61086;BME280;46967;48.876;2.136;2023-01-24T00:53:49;103224.38;;;2.37;78.23
61086;BME280;46967;48.876;2.136;2023-01-24T00:56:14;103218.50;;;2.40;78.27
61086;BME280;46967;48.876;2.136;2023-01-24T00:58:39;103222.69;;;2.38;78.42
61086;BME280;46967;48.876;2.136;2023-01-24T01:01:04;103225.03;;;2.33;78.46
61086;BME280;46967;48.876;2.136;2023-01-24T01:03:30;103227.59;;;2.33;78.78
61086;BME280;46967;48.876;2.136;2023-01-24T01:06:00;103225.31;;;2.39;78.48
61086;BME280;46967;48.876;2.136;2023-01-24T01:08:26;103232.34;;;2.43;78.40
61086;BME280;46967;48.876;2.136;2023-01-24T01:10:52;103224.72;;;2.45;78.36
61086;BME280;46967;48.876;2.136;2023-01-24T01:13:17;103232.47;;;2.46;78.34
61086;BME280;46967;48.876;2.136;2023-01-24T01:15:42;103229.00;;;2.46;78.42
61086;BME280;46967;48.876;2.136;2023-01-24T01:18:08;103229.13;;;2.49;78.42
61086;BME280;46967;48.876;2.136;2023-01-24T01:20:33;103226.41;;;2.44;78.52
61086;BME280;46967;48.876;2.136;2023-01-24T01:22:59;103227.66;;;2.34;79.00
61086;BME280;46967;48.876;2.136;2023-01-24T01:25:24;103230.22;;;2.34;78.94
61086;BME280;46967;48.876;2.136;2023-01-24T01:27:49;103229.31;;;2.32;79.03
61086;BME280;46967;48.876;2.136;2023-01-24T01:30:15;103225.81;;;2.30;79.49
61086;BME280;46967;48.876;2.136;2023-01-24T01:32:40;103236.00;;;2.29;79.46
61086;BME280;46967;48.876;2.136;2023-01-24T01:35:06;103239.63;;;2.34;79.81
61086;BME280;46967;48.876;2.136;2023-01-24T01:37:31;103241.25;;;2.32;79.58
61086;BME280;46967;48.876;2.136;2023-01-24T01:39:57;103235.94;;;2.27;80.04
61086;BME280;46967;48.876;2.136;2023-01-24T01:42:22;103248.25;;;2.36;79.77
61086;BME280;46967;48.876;2.136;2023-01-24T01:44:49;103241.66;;;2.41;79.44
61086;BME280;46967;48.876;2.136;2023-01-24T01:50:19;103239.38;;;2.49;79.29
61086;BME280;46967;48.876;2.136;2023-01-24T01:52:48;103239.31;;;2.47;78.88
61086;BME280;46967;48.876;2.136;2023-01-24T01:55:21;103240.69;;;2.39;78.97
61086;BME280;46967;48.876;2.136;2023-01-24T01:57:49;103243.31;;;2.41;79.03
61086;BME280;46967;48.876;2.136;2023-01-24T02:00:18;103236.59;;;2.43;79.18
61086;BME280;46967;48.876;2.136;2023-01-24T02:02:50;103251.47;;;2.51;78.93
61086;BME280;46967;48.876;2.136;2023-01-24T02:05:20;103244.38;;;2.46;78.57
61086;BME280;46967;48.876;2.136;2023-01-24T02:07:51;103248.94;;;2.32;78.78
61086;BME280;46967;48.876;2.136;2023-01-24T02:10:21;103256.50;;;2.29;78.78
61086;BME280;46967;48.876;2.136;2023-01-24T02:12:48;103251.31;;;2.27;79.14
61086;BME280;46967;48.876;2.136;2023-01-24T02:15:17;103246.84;;;2.23;79.67
61086;BME280;46967;48.876;2.136;2023-01-24T02:18:02;103245.56;;;2.13;79.45
61086;BME280;46967;48.876;2.136;2023-01-24T02:20:44;103243.59;;;2.08;79.49
61086;BME280;46967;48.876;2.136;2023-01-24T02:28:32;103244.22;;;2.02;79.88
61086;BME280;46967;48.876;2.136;2023-01-24T02:30:59;103245.97;;;2.03;79.76
61086;BME280;46967;48.876;2.136;2023-01-24T02:33:24;103255.66;;;1.91;80.25
61086;BME280;46967;48.876;2.136;2023-01-24T02:35:50;103250.06;;;1.80;80.52
61086;BME280;46967;48.876;2.136;2023-01-24T02:38:22;103248.13;;;1.94;80.13
61086;BME280;46967;48.876;2.136;2023-01-24T02:40:51;103266.78;;;1.91;80.33
61086;BME280;46967;48.876;2.136;2023-01-24T02:43:19;103252.91;;;1.86;81.01
61086;BME280;46967;48.876;2.136;2023-01-24T02:45:45;103248.56;;;1.85;80.23
61086;BME280;46967;48.876;2.136;2023-01-24T02:48:10;103249.41;;;1.84;80.21
61086;BME280;46967;48.876;2.136;2023-01-24T02:50:36;103241.72;;;1.84;80.47
61086;BME280;46967;48.876;2.136;2023-01-24T02:53:21;103252.84;;;1.85;80.58
61086;BME280;46967;48.876;2.136;2023-01-24T02:56:04;103243.72;;;1.91;80.46
61086;BME280;46967;48.876;2.136;2023-01-24T02:58:49;103243.88;;;1.94;80.58
61086;BME280;46967;48.876;2.136;2023-01-24T03:01:15;103250.75;;;1.95;80.60
61086;BME280;46967;48.876;2.136;2023-01-24T03:03:44;103248.94;;;1.93;80.39
61086;BME280;46967;48.876;2.136;2023-01-24T03:06:10;103244.53;;;1.90;80.14
61086;BME280;46967;48.876;2.136;2023-01-24T03:08:36;103247.28;;;1.95;80.07
61086;BME280;46967;48.876;2.136;2023-01-24T03:11:03;103254.31;;;1.99;80.11
61086;BME280;46967;48.876;2.136;2023-01-24T03:13:28;103252.97;;;1.88;80.19
61086;BME280;46967;48.876;2.136;2023-01-24T03:16:12;103254.78;;;1.90;80.50
61086;BME280;46967;48.876;2.136;2023-01-24T03:18:56;103261.06;;;1.97;80.17
61086;BME280;46967;48.876;2.136;2023-01-24T03:21:41;103246.91;;;2.05;79.86
61086;BME280;46967;48.876;2.136;2023-01-24T03:24:25;103251.09;;;2.03;79.58
61086;BME280;46967;48.876;2.136;2023-01-24T03:27:09;103240.22;;;1.89;79.43
61086;BME280;46967;48.876;2.136;2023-01-24T03:29:53;103235.56;;;1.80;80.20
61086;BME280;46967;48.876;2.136;2023-01-24T03:32:38;103239.97;;;1.83;80.46
61086;BME280;46967;48.876;2.136;2023-01-24T03:35:22;103232.78;;;1.76;80.34
61086;BME280;46967;48.876;2.136;2023-01-24T03:37:48;103237.69;;;1.89;79.91
61086;BME280;46967;48.876;2.136;2023-01-24T03:40:32;103239.03;;;1.81;79.95
61086;BME280;46967;48.876;2.136;2023-01-24T03:42:59;103239.97;;;1.83;80.16
61086;BME280;46967;48.876;2.136;2023-01-24T03:45:30;103243.25;;;1.80;80.06
61086;BME280;46967;48.876;2.136;2023-01-24T03:47:59;103249.63;;;1.71;80.26
61086;BME280;46967;48.876;2.136;2023-01-24T03:50:30;103249.19;;;1.79;80.27
61086;BME280;46967;48.876;2.136;2023-01-24T03:53:15;103251.13;;;1.85;79.96
61086;BME280;46967;48.876;2.136;2023-01-24T03:55:41;103252.25;;;1.72;80.98
61086;BME280;46967;48.876;2.136;2023-01-24T03:58:08;103258.00;;;1.67;80.52
61086;BME280;46967;48.876;2.136;2023-01-24T04:00:34;103250.97;;;1.62;80.67
61086;BME280;46967;48.876;2.136;2023-01-24T04:03:00;103244.84;;;1.59;80.85
61086;BME280;46967;48.876;2.136;2023-01-24T04:05:26;103243.72;;;1.54;80.88
61086;BME280;46967;48.876;2.136;2023-01-24T04:07:55;103245.13;;;1.65;80.42
61086;BME280;46967;48.876;2.136;2023-01-24T04:10:21;103247.94;;;1.71;80.14
61086;BME280;46967;48.876;2.136;2023-01-24T04:12:47;103242.88;;;1.73;80.68
61086;BME280;46967;48.876;2.136;2023-01-24T04:15:19;103231.34;;;1.81;80.15
61086;BME280;46967;48.876;2.136;2023-01-24T04:17:45;103229.50;;;1.78;80.58
61086;BME280;46967;48.876;2.136;2023-01-24T04:20:10;103229.28;;;1.74;80.70
61086;BME280;46967;48.876;2.136;2023-01-24T04:22:36;103238.81;;;1.76;80.64
61086;BME280;46967;48.876;2.136;2023-01-24T04:25:01;103244.88;;;1.78;80.43
61086;BME280;46967;48.876;2.136;2023-01-24T04:27:27;103238.75;;;1.75;80.89
61086;BME280;46967;48.876;2.136;2023-01-24T04:29:52;103235.34;;;1.76;80.74
61086;BME280;46967;48.876;2.136;2023-01-24T04:32:17;103245.94;;;1.84;80.52
61086;BME280;46967;48.876;2.136;2023-01-24T04:34:43;103236.53;;;1.83;80.55
61086;BME280;46967;48.876;2.136;2023-01-24T04:37:08;103240.75;;;1.82;80.43
61086;BME280;46967;48.876;2.136;2023-01-24T04:39:33;103246.16;;;1.88;80.08
61086;BME280;46967;48.876;2.136;2023-01-24T04:41:59;103231.19;;;1.78;80.18
61086;BME280;46967;48.876;2.136;2023-01-24T04:44:24;103239.75;;;1.78;80.70
61086;BME280;46967;48.876;2.136;2023-01-24T04:46:50;103241.59;;;1.81;80.85
61086;BME280;46967;48.876;2.136;2023-01-24T04:49:15;103235.50;;;1.79;81.04
61086;BME280;46967;48.876;2.136;2023-01-24T04:51:40;103243.53;;;1.87;80.51
61086;BME280;46967;48.876;2.136;2023-01-24T04:54:11;103248.06;;;1.74;81.03
61086;BME280;46967;48.876;2.136;2023-01-24T04:56:37;103246.16;;;1.88;80.16
61086;BME280;46967;48.876;2.136;2023-01-24T04:59:02;103248.91;;;1.73;80.69
61086;BME280;46967;48.876;2.136;2023-01-24T05:01:27;103255.28;;;1.63;80.74
61086;BME280;46967;48.876;2.136;2023-01-24T05:03:53;103254.59;;;1.68;80.63
61086;BME280;46967;48.876;2.136;2023-01-24T05:06:27;103251.25;;;1.69;80.93
61086;BME280;46967;48.876;2.136;2023-01-24T05:08:53;103259.59;;;1.65;81.21
61086;BME280;46967;48.876;2.136;2023-01-24T05:11:19;103260.81;;;1.73;81.15
61086;BME280;46967;48.876;2.136;2023-01-24T05:13:44;103266.00;;;1.74;80.96
61086;BME280;46967;48.876;2.136;2023-01-24T05:16:10;103258.94;;;1.69;81.26
61086;BME280;46967;48.876;2.136;2023-01-24T05:18:35;103269.59;;;1.78;81.04
61086;BME280;46967;48.876;2.136;2023-01-24T05:21:07;103274.03;;;1.82;80.70
61086;BME280;46967;48.876;2.136;2023-01-24T05:23:33;103269.75;;;1.81;81.11
61086;BME280;46967;48.876;2.136;2023-01-24T05:26:02;103266.91;;;1.75;81.11
61086;BME280;46967;48.876;2.136;2023-01-24T05:28:28;103268.91;;;1.82;81.15
61086;BME280;46967;48.876;2.136;2023-01-24T05:30:58;103265.84;;;1.89;81.25
61086;BME280;46967;48.876;2.136;2023-01-24T05:33:24;103273.06;;;1.98;80.63
61086;BME280;46967;48.876;2.136;2023-01-24T05:35:56;103273.31;;;1.85;80.67
61086;BME280;46967;48.876;2.136;2023-01-24T05:38:22;103268.91;;;1.82;80.83
61086;BME280;46967;48.876;2.136;2023-01-24T05:40:47;103265.56;;;1.83;80.95
61086;BME280;46967;48.876;2.136;2023-01-24T05:43:12;103262.38;;;1.69;81.51
61086;BME280;46967;48.876;2.136;2023-01-24T05:45:38;103271.16;;;1.56;82.48
61086;BME280;46967;48.876;2.136;2023-01-24T05:48:03;103271.66;;;1.67;82.17
61086;BME280;46967;48.876;2.136;2023-01-24T05:50:28;103269.41;;;1.55;82.61
61086;BME280;46967;48.876;2.136;2023-01-24T05:52:54;103278.47;;;1.49;82.76
61086;BME280;46967;48.876;2.136;2023-01-24T05:55:19;103290.63;;;1.53;82.76
61086;BME280;46967;48.876;2.136;2023-01-24T05:57:44;103282.00;;;1.33;83.49
61086;BME280;46967;48.876;2.136;2023-01-24T06:00:10;103282.50;;;1.43;83.42
61086;BME280;46967;48.876;2.136;2023-01-24T06:02:35;103290.53;;;1.33;83.85
61086;BME280;46967;48.876;2.136;2023-01-24T06:05:01;103291.72;;;1.40;83.51
61086;BME280;46967;48.876;2.136;2023-01-24T06:07:26;103290.03;;;1.40;83.49
61086;BME280;46967;48.876;2.136;2023-01-24T06:09:51;103291.66;;;1.38;83.91
61086;BME280;46967;48.876;2.136;2023-01-24T06:12:17;103288.63;;;1.47;83.55
61086;BME280;46967;48.876;2.136;2023-01-24T06:14:42;103296.31;;;1.47;83.33
61086;BME280;46967;48.876;2.136;2023-01-24T06:17:07;103292.31;;;1.34;83.84
61086;BME280;46967;48.876;2.136;2023-01-24T06:19:33;103297.41;;;1.34;84.00
61086;BME280;46967;48.876;2.136;2023-01-24T06:22:22;103295.94;;;1.39;84.10
61086;BME280;46967;48.876;2.136;2023-01-24T06:24:50;103296.56;;;1.34;84.43
61086;BME280;46967;48.876;2.136;2023-01-24T06:27:16;103301.59;;;1.32;84.29
61086;BME280;46967;48.876;2.136;2023-01-24T06:29:42;103309.72;;;1.41;83.99
61086;BME280;46967;48.876;2.136;2023-01-24T06:38:01;103308.97;;;1.44;84.03
61086;BME280;46967;48.876;2.136;2023-01-24T06:40:21;103307.47;;;1.48;83.57
61086;BME280;46967;48.876;2.136;2023-01-24T06:42:48;103312.44;;;1.44;83.82
61086;BME280;46967;48.876;2.136;2023-01-24T06:45:14;103316.94;;;1.50;84.03
61086;BME280;46967;48.876;2.136;2023-01-24T06:47:40;103313.81;;;1.56;83.94
61086;BME280;46967;48.876;2.136;2023-01-24T06:50:06;103314.25;;;1.65;83.15
61086;BME280;46967;48.876;2.136;2023-01-24T06:52:34;103313.66;;;1.53;83.65
61086;BME280;46967;48.876;2.136;2023-01-24T06:55:01;103320.50;;;1.54;84.19
61086;BME280;46967;48.876;2.136;2023-01-24T06:57:26;103320.44;;;1.52;84.37
61086;BME280;46967;48.876;2.136;2023-01-24T06:59:51;103325.78;;;1.57;84.00
61086;BME280;46967;48.876;2.136;2023-01-24T07:02:17;103325.28;;;1.64;83.85
61086;BME280;46967;48.876;2.136;2023-01-24T07:04:42;103324.75;;;1.71;83.91
61086;BME280;46967;48.876;2.136;2023-01-24T07:07:07;103317.38;;;1.77;83.43
61086;BME280;46967;48.876;2.136;2023-01-24T07:09:33;103316.78;;;1.83;83.39
61086;BME280;46967;48.876;2.136;2023-01-24T07:11:58;103317.94;;;1.90;82.77
61086;BME280;46967;48.876;2.136;2023-01-24T07:14:24;103316.00;;;1.84;82.86
61086;BME280;46967;48.876;2.136;2023-01-24T07:16:51;103319.72;;;1.91;82.57
61086;BME280;46967;48.876;2.136;2023-01-24T07:19:19;103321.38;;;1.90;82.35
61086;BME280;46967;48.876;2.136;2023-01-24T07:21:46;103319.50;;;1.86;82.02
61086;BME280;46967;48.876;2.136;2023-01-24T07:24:17;103320.34;;;1.87;82.17
61086;BME280;46967;48.876;2.136;2023-01-24T07:26:43;103326.38;;;1.87;82.33
61086;BME280;46967;48.876;2.136;2023-01-24T07:29:08;103328.25;;;1.91;82.26
61086;BME280;46967;48.876;2.136;2023-01-24T07:31:34;103332.50;;;1.91;82.20
61086;BME280;46967;48.876;2.136;2023-01-24T07:33:59;103333.63;;;1.78;82.79
61086;BME280;46967;48.876;2.136;2023-01-24T07:36:25;103343.28;;;1.66;83.18
61086;BME280;46967;48.876;2.136;2023-01-24T07:38:54;103345.84;;;1.66;83.29
61086;BME280;46967;48.876;2.136;2023-01-24T07:41:19;103345.06;;;1.67;83.16
61086;BME280;46967;48.876;2.136;2023-01-24T07:43:45;103345.78;;;1.64;83.37
61086;BME280;46967;48.876;2.136;2023-01-24T07:46:10;103351.47;;;1.58;83.68
61086;BME280;46967;48.876;2.136;2023-01-24T07:48:35;103345.94;;;1.49;84.02
61086;BME280;46967;48.876;2.136;2023-01-24T07:51:01;103355.50;;;1.53;83.73
61086;BME280;46967;48.876;2.136;2023-01-24T07:53:27;103360.53;;;1.52;83.85
61086;BME280;46967;48.876;2.136;2023-01-24T07:55:52;103358.13;;;1.55;84.19
61086;BME280;46967;48.876;2.136;2023-01-24T07:58:18;103357.19;;;1.53;84.14
61086;BME280;46967;48.876;2.136;2023-01-24T08:00:43;103360.31;;;1.47;84.27
61086;BME280;46967;48.876;2.136;2023-01-24T08:03:10;103363.69;;;1.46;84.54
61086;BME280;46967;48.876;2.136;2023-01-24T08:05:38;103368.97;;;1.49;84.37
61086;BME280;46967;48.876;2.136;2023-01-24T08:08:04;103372.38;;;1.50;84.37
61086;BME280;46967;48.876;2.136;2023-01-24T08:10:29;103376.41;;;1.44;84.58
61086;BME280;46967;48.876;2.136;2023-01-24T08:12:55;103379.63;;;1.40;84.70
61086;BME280;46967;48.876;2.136;2023-01-24T08:15:21;103372.66;;;1.38;85.01
61086;BME280;46967;48.876;2.136;2023-01-24T08:17:47;103380.56;;;1.42;84.71
61086;BME280;46967;48.876;2.136;2023-01-24T08:20:13;103387.13;;;1.37;84.98
61086;BME280;46967;48.876;2.136;2023-01-24T08:22:39;103380.06;;;1.50;84.77
61086;BME280;46967;48.876;2.136;2023-01-24T08:25:05;103386.88;;;1.49;84.97
61086;BME280;46967;48.876;2.136;2023-01-24T08:27:31;103386.91;;;1.51;84.90
61086;BME280;46967;48.876;2.136;2023-01-24T08:29:56;103387.00;;;1.52;85.23
61086;BME280;46967;48.876;2.136;2023-01-24T08:32:22;103378.41;;;1.68;84.53
61086;BME280;46967;48.876;2.136;2023-01-24T08:34:47;103379.19;;;1.67;83.91
61086;BME280;46967;48.876;2.136;2023-01-24T08:37:13;103382.69;;;1.69;84.35
61086;BME280;46967;48.876;2.136;2023-01-24T08:39:38;103389.88;;;1.76;84.21
61086;BME280;46967;48.876;2.136;2023-01-24T08:42:03;103392.53;;;1.78;83.69
61086;BME280;46967;48.876;2.136;2023-01-24T08:44:29;103389.22;;;1.80;83.80
61086;BME280;46967;48.876;2.136;2023-01-24T08:46:54;103390.25;;;1.84;84.10
61086;BME280;46967;48.876;2.136;2023-01-24T08:49:19;103399.19;;;1.92;83.58
61086;BME280;46967;48.876;2.136;2023-01-24T08:51:45;103397.78;;;1.81;83.70
61086;BME280;46967;48.876;2.136;2023-01-24T08:54:12;103401.06;;;1.78;83.65
61086;BME280;46967;48.876;2.136;2023-01-24T08:56:38;103410.38;;;1.76;84.14
61086;BME280;46967;48.876;2.136;2023-01-24T08:59:03;103405.31;;;1.78;84.21
61086;BME280;46967;48.876;2.136;2023-01-24T09:01:28;103407.00;;;1.95;83.41
61086;BME280;46967;48.876;2.136;2023-01-24T09:03:54;103408.44;;;1.90;83.20
61086;BME280;46967;48.876;2.136;2023-01-24T09:06:21;103413.22;;;1.83;83.09
61086;BME280;46967;48.876;2.136;2023-01-24T09:08:47;103416.66;;;1.83;83.65
61086;BME280;46967;48.876;2.136;2023-01-24T09:11:12;103410.16;;;1.90;83.05
61086;BME280;46967;48.876;2.136;2023-01-24T09:13:38;103411.41;;;1.80;83.57
61086;BME280;46967;48.876;2.136;2023-01-24T09:16:03;103410.91;;;1.87;83.68
61086;BME280;46967;48.876;2.136;2023-01-24T09:18:29;103410.22;;;1.91;83.25
61086;BME280;46967;48.876;2.136;2023-01-24T09:20:54;103408.44;;;1.90;83.34
61086;BME280;46967;48.876;2.136;2023-01-24T09:23:19;103409.03;;;2.03;83.35
61086;BME280;46967;48.876;2.136;2023-01-24T09:25:51;103407.16;;;1.98;83.00
61086;BME280;46967;48.876;2.136;2023-01-24T09:28:17;103411.81;;;2.07;83.23
61086;BME280;46967;48.876;2.136;2023-01-24T09:30:48;103410.19;;;2.09;82.58
61086;BME280;46967;48.876;2.136;2023-01-24T09:33:14;103413.50;;;2.07;83.01
61086;BME280;46967;48.876;2.136;2023-01-24T09:35:40;103412.84;;;2.11;82.97
61086;BME280;46967;48.876;2.136;2023-01-24T09:38:06;103412.19;;;2.15;83.28
61086;BME280;46967;48.876;2.136;2023-01-24T09:46:21;103425.66;;;2.29;82.28
61086;BME280;46967;48.876;2.136;2023-01-24T09:48:53;103435.13;;;2.31;81.74
61086;BME280;46967;48.876;2.136;2023-01-24T09:51:22;103429.28;;;2.34;82.03
61086;BME280;46967;48.876;2.136;2023-01-24T09:53:52;103430.22;;;2.36;82.15
61086;BME280;46967;48.876;2.136;2023-01-24T09:59:09;103438.13;;;2.41;82.17
61086;BME280;46967;48.876;2.136;2023-01-24T10:01:38;103432.94;;;2.39;82.16
61086;BME280;46967;48.876;2.136;2023-01-24T10:04:13;103433.75;;;2.38;82.29
61086;BME280;46967;48.876;2.136;2023-01-24T10:06:43;103434.34;;;2.32;82.34
61086;BME280;46967;48.876;2.136;2023-01-24T10:09:17;103438.69;;;2.33;82.62
61086;BME280;46967;48.876;2.136;2023-01-24T10:12:00;103443.88;;;2.35;82.65
61086;BME280;46967;48.876;2.136;2023-01-24T10:25:27;103434.09;;;2.46;82.75
61086;BME280;46967;48.876;2.136;2023-01-24T10:27:56;103441.25;;;2.53;83.01
61086;BME280;46967;48.876;2.136;2023-01-24T10:30:52;103434.78;;;2.61;82.77
61086;BME280;46967;48.876;2.136;2023-01-24T10:33:19;103432.31;;;2.63;82.61
61086;BME280;46967;48.876;2.136;2023-01-24T10:38:19;103434.88;;;2.63;82.53
61086;BME280;46967;48.876;2.136;2023-01-24T10:40:53;103435.63;;;2.60;82.65
61086;BME280;46967;48.876;2.136;2023-01-24T10:43:22;103441.97;;;2.68;82.94
61086;BME280;46967;48.876;2.136;2023-01-24T10:48:49;103434.13;;;2.65;82.75
61086;BME280;46967;48.876;2.136;2023-01-24T10:51:19;103431.78;;;2.70;82.64
61086;BME280;46967;48.876;2.136;2023-01-24T10:53:45;103419.09;;;2.73;82.82
61086;BME280;46967;48.876;2.136;2023-01-24T10:56:12;103420.97;;;2.77;82.11
61086;BME280;46967;48.876;2.136;2023-01-24T10:58:58;103415.91;;;2.79;82.22
61086;BME280;46967;48.876;2.136;2023-01-24T11:01:47;103414.31;;;2.81;82.22
61086;BME280;46967;48.876;2.136;2023-01-24T11:04:25;103411.25;;;2.89;81.79
61086;BME280;46967;48.876;2.136;2023-01-24T11:06:51;103404.97;;;2.83;82.16
61086;BME280;46967;48.876;2.136;2023-01-24T11:09:19;103400.06;;;2.87;81.87
61086;BME280;46967;48.876;2.136;2023-01-24T11:11:54;103402.63;;;2.87;81.59
61086;BME280;46967;48.876;2.136;2023-01-24T11:14:23;103401.59;;;2.84;82.04
61086;BME280;46967;48.876;2.136;2023-01-24T11:16:52;103405.91;;;2.85;82.02
61086;BME280;46967;48.876;2.136;2023-01-24T11:21:54;103402.47;;;2.84;81.88
61086;BME280;46967;48.876;2.136;2023-01-24T11:24:20;103393.88;;;2.84;81.78
61086;BME280;46967;48.876;2.136;2023-01-24T11:27:19;103398.84;;;2.79;81.76
61086;BME280;46967;48.876;2.136;2023-01-24T11:30:03;103400.25;;;2.72;82.26
61086;BME280;46967;48.876;2.136;2023-01-24T11:35:22;103393.25;;;2.68;82.34
61086;BME280;46967;48.876;2.136;2023-01-24T11:38:14;103385.75;;;2.73;82.12
61086;BME280;46967;48.876;2.136;2023-01-24T11:46:24;103379.59;;;2.69;82.35
61086;BME280;46967;48.876;2.136;2023-01-24T11:49:04;103385.88;;;2.76;82.31
61086;BME280;46967;48.876;2.136;2023-01-24T11:54:17;103380.13;;;2.82;82.39
61086;BME280;46967;48.876;2.136;2023-01-24T11:57:02;103373.44;;;2.85;81.92
61086;BME280;46967;48.876;2.136;2023-01-24T12:02:19;103371.97;;;2.90;82.06
61086;BME280;46967;48.876;2.136;2023-01-24T12:18:38;103351.34;;;3.08;81.21
61086;BME280;46967;48.876;2.136;2023-01-24T12:21:11;103345.81;;;2.99;81.51
61086;BME280;46967;48.876;2.136;2023-01-24T12:23:54;103346.13;;;3.07;81.49
61086;BME280;46967;48.876;2.136;2023-01-24T12:26:28;103342.06;;;3.12;81.14
61086;BME280;46967;48.876;2.136;2023-01-24T12:32:11;103348.16;;;3.14;81.50
61086;BME280;46967;48.876;2.136;2023-01-24T12:39:51;103327.19;;;3.24;80.99
61086;BME280;46967;48.876;2.136;2023-01-24T12:42:25;103328.63;;;3.18;81.37
61086;BME280;46967;48.876;2.136;2023-01-24T12:45:01;103331.56;;;3.27;81.00
61086;BME280;46967;48.876;2.136;2023-01-24T12:47:41;103328.41;;;3.34;81.16
61086;BME280;46967;48.876;2.136;2023-01-24T12:50:20;103323.34;;;3.36;81.00
61086;BME280;46967;48.876;2.136;2023-01-24T12:55:36;103327.63;;;3.35;81.19
61086;BME280;46967;48.876;2.136;2023-01-24T13:11:24;103324.75;;;3.28;81.11
61086;BME280;46967;48.876;2.136;2023-01-24T13:17:07;103311.78;;;3.24;81.45
61086;BME280;46967;48.876;2.136;2023-01-24T13:28:17;103320.59;;;3.31;81.86
61086;BME280;46967;48.876;2.136;2023-01-24T13:36:15;103320.34;;;3.25;81.74
61086;BME280;46967;48.876;2.136;2023-01-24T13:38:43;103327.75;;;3.38;81.62
61086;BME280;46967;48.876;2.136;2023-01-24T13:41:18;103324.34;;;3.39;81.88
61086;BME280;46967;48.876;2.136;2023-01-24T13:44:26;103321.75;;;3.38;81.81
61086;BME280;46967;48.876;2.136;2023-01-24T13:46:58;103315.59;;;3.34;81.67
61086;BME280;46967;48.876;2.136;2023-01-24T13:51:54;103314.28;;;3.23;82.07
61086;BME280;46967;48.876;2.136;2023-01-24T13:59:40;103320.97;;;3.40;81.78
61086;BME280;46967;48.876;2.136;2023-01-24T14:04:52;103316.94;;;3.47;81.53
61086;BME280;46967;48.876;2.136;2023-01-24T14:07:19;103316.63;;;3.39;81.72
61086;BME280;46967;48.876;2.136;2023-01-24T14:09:57;103311.69;;;3.44;81.95
61086;BME280;46967;48.876;2.136;2023-01-24T14:12:23;103312.59;;;3.44;81.83
61086;BME280;46967;48.876;2.136;2023-01-24T14:14:59;103317.78;;;3.46;81.73
61086;BME280;46967;48.876;2.136;2023-01-24T14:17:45;103318.78;;;3.50;81.84
61086;BME280;46967;48.876;2.136;2023-01-24T14:20:23;103313.81;;;3.54;81.83
61086;BME280;46967;48.876;2.136;2023-01-24T14:22:54;103319.50;;;3.47;81.65
61086;BME280;46967;48.876;2.136;2023-01-24T14:28:19;103317.97;;;3.51;81.57
61086;BME280;46967;48.876;2.136;2023-01-24T14:30:50;103315.97;;;3.43;82.01
61086;BME280;46967;48.876;2.136;2023-01-24T14:36:04;103321.63;;;3.35;83.02
61086;BME280;46967;48.876;2.136;2023-01-24T14:38:31;103312.84;;;3.30;82.64
61086;BME280;46967;48.876;2.136;2023-01-24T14:40:56;103324.19;;;3.35;82.47
61086;BME280;46967;48.876;2.136;2023-01-24T14:43:27;103322.16;;;3.28;82.69
61086;BME280;46967;48.876;2.136;2023-01-24T14:45:56;103315.72;;;3.16;83.45
61086;BME280;46967;48.876;2.136;2023-01-24T14:48:24;103318.56;;;3.22;82.96
61086;BME280;46967;48.876;2.136;2023-01-24T14:51:04;103317.78;;;3.25;82.70
61086;BME280;46967;48.876;2.136;2023-01-24T14:53:30;103314.16;;;3.20;82.64
61086;BME280;46967;48.876;2.136;2023-01-24T14:56:09;103324.09;;;3.12;83.19
61086;BME280;46967;48.876;2.136;2023-01-24T14:58:39;103319.75;;;3.10;83.25
61086;BME280;46967;48.876;2.136;2023-01-24T15:01:30;103331.25;;;2.98;83.82
61086;BME280;46967;48.876;2.136;2023-01-24T15:03:56;103322.78;;;3.01;83.62
61086;BME280;46967;48.876;2.136;2023-01-24T15:06:24;103324.16;;;2.93;84.07
61086;BME280;46967;48.876;2.136;2023-01-24T15:08:55;103321.34;;;3.07;83.27
61086;BME280;46967;48.876;2.136;2023-01-24T15:11:25;103325.47;;;3.04;83.53
61086;BME280;46967;48.876;2.136;2023-01-24T15:14:03;103321.78;;;2.97;84.04
61086;BME280;46967;48.876;2.136;2023-01-24T15:16:37;103331.41;;;3.03;83.75